Aviation Digital Data Service (ADDS)

Output produced by METARs form (0903 UTC 18 February 2019)
found at http://www.aviationweather.gov/metar/data/
 
METAR text: WSSL 180900Z 08008KT 9999 FEW020 BKN270 30/22 Q1009
Conditions at: WSSL (SINGAPORE/SELETA, SG) observed 0900 UTC 18 February 2019
Temperature: 30.0°C (86°F)
Dewpoint: 22.0°C (72°F) [RH = 62%]
Pressure (altimeter): 29.79 inches Hg (1009.0 mb)
Winds: from the E (80 degrees) at 9 MPH (8 knots; 4.1 m/s)
Visibility: 6 or more miles (10+ km)
Ceiling: 27000 feet AGL
Clouds: few clouds at 2000 feet AGL
broken clouds at 27000 feet AGL
Weather: no significant weather observed at this time

METAR text: WSSL 180800Z 05006KT 020V090 9999 FEW020 BKN270 30/22 Q1010
Conditions at: WSSL (SINGAPORE/SELETA, SG) observed 0800 UTC 18 February 2019
Temperature: 30.0°C (86°F)
Dewpoint: 22.0°C (72°F) [RH = 62%]
Pressure (altimeter): 29.82 inches Hg (1010.0 mb)
Winds: from the NE (50 degrees) at 7 MPH (6 knots; 3.1 m/s)
Visibility: 6 or more miles (10+ km)
Ceiling: 27000 feet AGL
Clouds: few clouds at 2000 feet AGL
broken clouds at 27000 feet AGL
Weather: no significant weather observed at this time

METAR text: WSSL 180700Z 35004KT 280V040 9999 FEW020 BKN270 30/23 Q1010
Conditions at: WSSL (SINGAPORE/SELETA, SG) observed 0700 UTC 18 February 2019
Temperature: 30.0°C (86°F)
Dewpoint: 23.0°C (73°F) [RH = 66%]
Pressure (altimeter): 29.82 inches Hg (1010.0 mb)
Winds: from the N (350 degrees) at 5 MPH (4 knots; 2.1 m/s)
Visibility: 6 or more miles (10+ km)
Ceiling: 27000 feet AGL
Clouds: few clouds at 2000 feet AGL
broken clouds at 27000 feet AGL
Weather: no significant weather observed at this time

METAR text: WSSL 180600Z 06003KT 330V140 9999 FEW020 BKN280 30/22 Q1011
Conditions at: WSSL (SINGAPORE/SELETA, SG) observed 0600 UTC 18 February 2019
Temperature: 30.0°C (86°F)
Dewpoint: 22.0°C (72°F) [RH = 62%]
Pressure (altimeter): 29.85 inches Hg (1011.0 mb)
Winds: from the ENE (60 degrees) at 3 MPH (3 knots; 1.5 m/s)
Visibility: 6 or more miles (10+ km)
Ceiling: 28000 feet AGL
Clouds: few clouds at 2000 feet AGL
broken clouds at 28000 feet AGL
Weather: no significant weather observed at this time

METAR text: WSSL 180500Z 07005KT 030V130 9999 FEW018 BKN280 29/23 Q1012
Conditions at: WSSL (SINGAPORE/SELETA, SG) observed 0500 UTC 18 February 2019
Temperature: 29.0°C (84°F)
Dewpoint: 23.0°C (73°F) [RH = 70%]
Pressure (altimeter): 29.88 inches Hg (1012.0 mb)
Winds: from the ENE (70 degrees) at 6 MPH (5 knots; 2.6 m/s)
Visibility: 6 or more miles (10+ km)
Ceiling: 28000 feet AGL
Clouds: few clouds at 1800 feet AGL
broken clouds at 28000 feet AGL
Weather: no significant weather observed at this time

METAR text: WSSL 180400Z 36004KT 280V090 9999 FEW018 BKN280 28/23 Q1013
Conditions at: WSSL (SINGAPORE/SELETA, SG) observed 0400 UTC 18 February 2019
Temperature: 28.0°C (82°F)
Dewpoint: 23.0°C (73°F) [RH = 74%]
Pressure (altimeter): 29.91 inches Hg (1013.0 mb)
Winds: from the N (360 degrees) at 5 MPH (4 knots; 2.1 m/s)
Visibility: 6 or more miles (10+ km)
Ceiling: 28000 feet AGL
Clouds: few clouds at 1800 feet AGL
broken clouds at 28000 feet AGL
Weather: no significant weather observed at this time

METAR text: WSSL 180300Z VRB02KT 9999 FEW018 BKN280 26/23 Q1014
Conditions at: WSSL (SINGAPORE/SELETA, SG) observed 0300 UTC 18 February 2019
Temperature: 26.0°C (79°F)
Dewpoint: 23.0°C (73°F) [RH = 84%]
Pressure (altimeter): 29.94 inches Hg (1014.0 mb)
Winds: variable direction winds at 2 MPH (2 knots; 1.0 m/s)
Visibility: 6 or more miles (10+ km)
Ceiling: 28000 feet AGL
Clouds: few clouds at 1800 feet AGL
broken clouds at 28000 feet AGL
Weather: no significant weather observed at this time

METAR text: WSSL 180200Z 01005KT 340V050 8000 FEW018 BKN260 25/23 Q1014
Conditions at: WSSL (SINGAPORE/SELETA, SG) observed 0200 UTC 18 February 2019
Temperature: 25.0°C (77°F)
Dewpoint: 23.0°C (73°F) [RH = 89%]
Pressure (altimeter): 29.94 inches Hg (1014.0 mb)
Winds: from the N (10 degrees) at 6 MPH (5 knots; 2.6 m/s)
Visibility: 5 miles ( 8 km)
Ceiling: 26000 feet AGL
Clouds: few clouds at 1800 feet AGL
broken clouds at 26000 feet AGL
Weather: no significant weather observed at this time

METAR text: WSSL 180100Z 02003KT 340V050 9999 FEW018 BKN160 24/22 Q1013
Conditions at: WSSL (SINGAPORE/SELETA, SG) observed 0100 UTC 18 February 2019
Temperature: 24.0°C (75°F)
Dewpoint: 22.0°C (72°F) [RH = 89%]
Pressure (altimeter): 29.91 inches Hg (1013.0 mb)
Winds: from the NNE (20 degrees) at 3 MPH (3 knots; 1.5 m/s)
Visibility: 6 or more miles (10+ km)
Ceiling: 16000 feet AGL
Clouds: few clouds at 1800 feet AGL
broken clouds at 16000 feet AGL
Weather: no significant weather observed at this time

METAR text: WSSL 180000Z VRB01KT 9999 FEW018 BKN150 23/22 Q1012
Conditions at: WSSL (SINGAPORE/SELETA, SG) observed 0000 UTC 18 February 2019
Temperature: 23.0°C (73°F)
Dewpoint: 22.0°C (72°F) [RH = 94%]
Pressure (altimeter): 29.88 inches Hg (1012.0 mb)
Winds: variable direction winds at 1 MPH (1 knots; 0.5 m/s)
Visibility: 6 or more miles (10+ km)
Ceiling: 15000 feet AGL
Clouds: few clouds at 1800 feet AGL
broken clouds at 15000 feet AGL
Weather: no significant weather observed at this time

METAR text: WSSL 172300Z 03004KT 340V060 9999 FEW018 BKN130 23/21 Q1012 RETS
Conditions at: WSSL (SINGAPORE/SELETA, SG) observed 2300 UTC 17 February 2019
Temperature: 23.0°C (73°F)
Dewpoint: 21.0°C (70°F) [RH = 89%]
Pressure (altimeter): 29.88 inches Hg (1012.0 mb)
Winds: from the NNE (30 degrees) at 5 MPH (4 knots; 2.1 m/s)
Visibility: 6 or more miles (10+ km)
Ceiling: 13000 feet AGL
Clouds: few clouds at 1800 feet AGL
broken clouds at 13000 feet AGL
Weather: no significant weather observed at this time

METAR text: WSSL 172200Z 04004KT 320V070 9999 -TSRA FEW017CB BKN170 23/22 Q1011 RESHRA
Conditions at: WSSL (SINGAPORE/SELETA, SG) observed 2200 UTC 17 February 2019
Temperature: 23.0°C (73°F)
Dewpoint: 22.0°C (72°F) [RH = 94%]
Pressure (altimeter): 29.85 inches Hg (1011.0 mb)
Winds: from the NE (40 degrees) at 5 MPH (4 knots; 2.1 m/s)
Visibility: 6 or more miles (10+ km)
Ceiling: 17000 feet AGL
Clouds: few clouds at 1700 feet AGL
broken clouds at 17000 feet AGL
Weather: -TSRA  (light rain associated with thunderstorm(s))

METAR text: WSSL 172145Z 06006KT 360V100 9999 -TSRA FEW015 FEW017CB BKN170 24/22 Q1011
Conditions at: WSSL (SINGAPORE/SELETA, SG) observed 2145 UTC 17 February 2019
Temperature: 24.0°C (75°F)
Dewpoint: 22.0°C (72°F) [RH = 89%]
Pressure (altimeter): 29.85 inches Hg (1011.0 mb)
Winds: from the ENE (60 degrees) at 7 MPH (6 knots; 3.1 m/s)
Visibility: 6 or more miles (10+ km)
Ceiling: 17000 feet AGL
Clouds: few clouds at 1500 feet AGL
few clouds at 1700 feet AGL
broken clouds at 17000 feet AGL
Weather: -TSRA  (light rain associated with thunderstorm(s))

METAR text: WSSL 172125Z 14004KT 080V190 9999 -RA FEW015 FEW018CB BKN170 23/22 Q1012 RESHRA
Conditions at: WSSL (SINGAPORE/SELETA, SG) observed 2125 UTC 17 February 2019
Temperature: 23.0°C (73°F)
Dewpoint: 22.0°C (72°F) [RH = 94%]
Pressure (altimeter): 29.88 inches Hg (1012.0 mb)
Winds: from the SE (140 degrees) at 5 MPH (4 knots; 2.1 m/s)
Visibility: 6 or more miles (10+ km)
Ceiling: 17000 feet AGL
Clouds: few clouds at 1500 feet AGL
few clouds at 1800 feet AGL
broken clouds at 17000 feet AGL
Weather: -RA  (light rain)

METAR text: WSSL 172110Z 24006KT 200V280 3000 +SHRA FEW010 SCT015TCU 23/22 Q1012
Conditions at: WSSL (SINGAPORE/SELETA, SG) observed 2110 UTC 17 February 2019
Temperature: 23.0°C (73°F)
Dewpoint: 22.0°C (72°F) [RH = 94%]
Pressure (altimeter): 29.88 inches Hg (1012.0 mb)
Winds: from the WSW (240 degrees) at 7 MPH (6 knots; 3.1 m/s)
Visibility: 1.86 miles (2.99 km)
Ceiling: at least 12,000 feet AGL
Clouds: few clouds at 1000 feet AGL
scattered clouds at 1500 feet AGL
Weather: +SHRA  (heavy rain showers)

METAR text: WSSL 172100Z 22012KT 9999 -SHRA FEW012 SCT015TCU 24/21 Q1011
Conditions at: WSSL (SINGAPORE/SELETA, SG) observed 2100 UTC 17 February 2019
Temperature: 24.0°C (75°F)
Dewpoint: 21.0°C (70°F) [RH = 83%]
Pressure (altimeter): 29.85 inches Hg (1011.0 mb)
Winds: from the SW (220 degrees) at 14 MPH (12 knots; 6.2 m/s)
Visibility: 6 or more miles (10+ km)
Ceiling: at least 12,000 feet AGL
Clouds: few clouds at 1200 feet AGL
scattered clouds at 1500 feet AGL
Weather: -SHRA  (light rain showers)

METAR text: WSSL 172000Z VRB01KT 8000 FEW018 SCT140 BKN280 25/24 Q1012
Conditions at: WSSL (SINGAPORE/SELETA, SG) observed 2000 UTC 17 February 2019
Temperature: 25.0°C (77°F)
Dewpoint: 24.0°C (75°F) [RH = 94%]
Pressure (altimeter): 29.88 inches Hg (1012.0 mb)
Winds: variable direction winds at 1 MPH (1 knots; 0.5 m/s)
Visibility: 5 miles ( 8 km)
Ceiling: 28000 feet AGL
Clouds: few clouds at 1800 feet AGL
scattered clouds at 14000 feet AGL
broken clouds at 28000 feet AGL
Weather: no significant weather observed at this time

METAR text: WSSL 171900Z VRB01KT 8000 FEW018 BKN280 25/24 Q1012
Conditions at: WSSL (SINGAPORE/SELETA, SG) observed 1900 UTC 17 February 2019
Temperature: 25.0°C (77°F)
Dewpoint: 24.0°C (75°F) [RH = 94%]
Pressure (altimeter): 29.88 inches Hg (1012.0 mb)
Winds: variable direction winds at 1 MPH (1 knots; 0.5 m/s)
Visibility: 5 miles ( 8 km)
Ceiling: 28000 feet AGL
Clouds: few clouds at 1800 feet AGL
broken clouds at 28000 feet AGL
Weather: no significant weather observed at this time

METAR text: WSSL 171800Z VRB01KT 9000 FEW018 BKN150 25/24 Q1012
Conditions at: WSSL (SINGAPORE/SELETA, SG) observed 1800 UTC 17 February 2019
Temperature: 25.0°C (77°F)
Dewpoint: 24.0°C (75°F) [RH = 94%]
Pressure (altimeter): 29.88 inches Hg (1012.0 mb)
Winds: variable direction winds at 1 MPH (1 knots; 0.5 m/s)
Visibility: 6 miles ( 9 km)
Ceiling: 15000 feet AGL
Clouds: few clouds at 1800 feet AGL
broken clouds at 15000 feet AGL
Weather: no significant weather observed at this time

METAR text: WSSL 171700Z 10002KT 9999 FEW018 BKN150 25/24 Q1012
Conditions at: WSSL (SINGAPORE/SELETA, SG) observed 1700 UTC 17 February 2019
Temperature: 25.0°C (77°F)
Dewpoint: 24.0°C (75°F) [RH = 94%]
Pressure (altimeter): 29.88 inches Hg (1012.0 mb)
Winds: from the E (100 degrees) at 2 MPH (2 knots; 1.0 m/s)
Visibility: 6 or more miles (10+ km)
Ceiling: 15000 feet AGL
Clouds: few clouds at 1800 feet AGL
broken clouds at 15000 feet AGL
Weather: no significant weather observed at this time

METAR text: WSSL 171600Z VRB01KT 9999 FEW018 BKN150 25/24 Q1013
Conditions at: WSSL (SINGAPORE/SELETA, SG) observed 1600 UTC 17 February 2019
Temperature: 25.0°C (77°F)
Dewpoint: 24.0°C (75°F) [RH = 94%]
Pressure (altimeter): 29.91 inches Hg (1013.0 mb)
Winds: variable direction winds at 1 MPH (1 knots; 0.5 m/s)
Visibility: 6 or more miles (10+ km)
Ceiling: 15000 feet AGL
Clouds: few clouds at 1800 feet AGL
broken clouds at 15000 feet AGL
Weather: no significant weather observed at this time

METAR text: WSSL 171500Z VRB01KT 9000 FEW018 BKN150 25/24 Q1013
Conditions at: WSSL (SINGAPORE/SELETA, SG) observed 1500 UTC 17 February 2019
Temperature: 25.0°C (77°F)
Dewpoint: 24.0°C (75°F) [RH = 94%]
Pressure (altimeter): 29.91 inches Hg (1013.0 mb)
Winds: variable direction winds at 1 MPH (1 knots; 0.5 m/s)
Visibility: 6 miles ( 9 km)
Ceiling: 15000 feet AGL
Clouds: few clouds at 1800 feet AGL
broken clouds at 15000 feet AGL
Weather: no significant weather observed at this time

METAR text: WSSL 171400Z VRB01KT 9999 FEW018 BKN150 25/23 Q1012
Conditions at: WSSL (SINGAPORE/SELETA, SG) observed 1400 UTC 17 February 2019
Temperature: 25.0°C (77°F)
Dewpoint: 23.0°C (73°F) [RH = 89%]
Pressure (altimeter): 29.88 inches Hg (1012.0 mb)
Winds: variable direction winds at 1 MPH (1 knots; 0.5 m/s)
Visibility: 6 or more miles (10+ km)
Ceiling: 15000 feet AGL
Clouds: few clouds at 1800 feet AGL
broken clouds at 15000 feet AGL
Weather: no significant weather observed at this time

METAR text: WSSL 171300Z VRB01KT 9999 -RA FEW018 BKN170 25/23 Q1011
Conditions at: WSSL (SINGAPORE/SELETA, SG) observed 1300 UTC 17 February 2019
Temperature: 25.0°C (77°F)
Dewpoint: 23.0°C (73°F) [RH = 89%]
Pressure (altimeter): 29.85 inches Hg (1011.0 mb)
Winds: variable direction winds at 1 MPH (1 knots; 0.5 m/s)
Visibility: 6 or more miles (10+ km)
Ceiling: 17000 feet AGL
Clouds: few clouds at 1800 feet AGL
broken clouds at 17000 feet AGL
Weather: -RA  (light rain)

METAR text: WSSL 171200Z 05003KT 9999 -RA FEW018 BKN170 24/23 Q1010 RETS
Conditions at: WSSL (SINGAPORE/SELETA, SG) observed 1200 UTC 17 February 2019
Temperature: 24.0°C (75°F)
Dewpoint: 23.0°C (73°F) [RH = 94%]
Pressure (altimeter): 29.82 inches Hg (1010.0 mb)
Winds: from the NE (50 degrees) at 3 MPH (3 knots; 1.5 m/s)
Visibility: 6 or more miles (10+ km)
Ceiling: 17000 feet AGL
Clouds: few clouds at 1800 feet AGL
broken clouds at 17000 feet AGL
Weather: -RA  (light rain)

METAR text: WSSL 171125Z 02006KT 340V050 9999 FEW015 BKN180 24/23 Q1010 RETS
Conditions at: WSSL (SINGAPORE/SELETA, SG) observed 1125 UTC 17 February 2019
Temperature: 24.0°C (75°F)
Dewpoint: 23.0°C (73°F) [RH = 94%]
Pressure (altimeter): 29.82 inches Hg (1010.0 mb)
Winds: from the NNE (20 degrees) at 7 MPH (6 knots; 3.1 m/s)
Visibility: 6 or more miles (10+ km)
Ceiling: 18000 feet AGL
Clouds: few clouds at 1500 feet AGL
broken clouds at 18000 feet AGL
Weather: no significant weather observed at this time

METAR text: WSSL 171100Z 36006KT 310V040 5000 -TSRA FEW015 FEW018CB BKN170 24/23 Q1010 RERA
Conditions at: WSSL (SINGAPORE/SELETA, SG) observed 1100 UTC 17 February 2019
Temperature: 24.0°C (75°F)
Dewpoint: 23.0°C (73°F) [RH = 94%]
Pressure (altimeter): 29.82 inches Hg (1010.0 mb)
Winds: from the N (360 degrees) at 7 MPH (6 knots; 3.1 m/s)
Visibility: 3 miles ( 5 km)
Ceiling: 17000 feet AGL
Clouds: few clouds at 1500 feet AGL
few clouds at 1800 feet AGL
broken clouds at 17000 feet AGL
Weather: -TSRA  (light rain associated with thunderstorm(s))

METAR text: WSSL 171030Z 35004KT 300V040 7000 -TSRA FEW015 FEW018CB BKN170 24/23 Q1010 RERA
Conditions at: WSSL (SINGAPORE/SELETA, SG) observed 1030 UTC 17 February 2019
Temperature: 24.0°C (75°F)
Dewpoint: 23.0°C (73°F) [RH = 94%]
Pressure (altimeter): 29.82 inches Hg (1010.0 mb)
Winds: from the N (350 degrees) at 5 MPH (4 knots; 2.1 m/s)
Visibility: 4 miles ( 7 km)
Ceiling: 17000 feet AGL
Clouds: few clouds at 1500 feet AGL
few clouds at 1800 feet AGL
broken clouds at 17000 feet AGL
Weather: -TSRA  (light rain associated with thunderstorm(s))

METAR text: WSSL 171002Z 05008KT 4000 TSRA FEW016CB BKN160 24/23 Q1010
Conditions at: WSSL (SINGAPORE/SELETA, SG) observed 1002 UTC 17 February 2019
Temperature: 24.0°C (75°F)
Dewpoint: 23.0°C (73°F) [RH = 94%]
Pressure (altimeter): 29.82 inches Hg (1010.0 mb)
Winds: from the NE (50 degrees) at 9 MPH (8 knots; 4.1 m/s)
Visibility: 2.49 miles (4.01 km)
Ceiling: 16000 feet AGL
Clouds: few clouds at 1600 feet AGL
broken clouds at 16000 feet AGL
Weather: TSRA  (rain associated with thunderstorm(s))

METAR text: WSSL 171000Z 04008KT 9000 -TSRA FEW016CB BKN170 24/23 Q1010
Conditions at: WSSL (SINGAPORE/SELETA, SG) observed 1000 UTC 17 February 2019
Temperature: 24.0°C (75°F)
Dewpoint: 23.0°C (73°F) [RH = 94%]
Pressure (altimeter): 29.82 inches Hg (1010.0 mb)
Winds: from the NE (40 degrees) at 9 MPH (8 knots; 4.1 m/s)
Visibility: 6 miles ( 9 km)
Ceiling: 17000 feet AGL
Clouds: few clouds at 1600 feet AGL
broken clouds at 17000 feet AGL
Weather: -TSRA  (light rain associated with thunderstorm(s))

METAR text: WSSL 170900Z 11010KT 070V150 7000 -TSRA FEW012 SCT014CB BKN180 25/25 Q1009 RESHRA
Conditions at: WSSL (SINGAPORE/SELETA, SG) observed 0900 UTC 17 February 2019
Temperature: 25.0°C (77°F)
Dewpoint: 25.0°C (77°F) [RH = 100%]
Pressure (altimeter): 29.79 inches Hg (1009.0 mb)
Winds: from the ESE (110 degrees) at 12 MPH (10 knots; 5.1 m/s)
Visibility: 4 miles ( 7 km)
Ceiling: 18000 feet AGL
Clouds: few clouds at 1200 feet AGL
scattered clouds at 1400 feet AGL
broken clouds at 18000 feet AGL
Weather: -TSRA  (light rain associated with thunderstorm(s))

METAR text: WSSL 170848Z 13014KT 090V180 1000 R03/0800N R21/1000U +TSRA FEW010 SCT012CB FEW015TCU 24/23 Q1009
Conditions at: WSSL (SINGAPORE/SELETA, SG) observed 0848 UTC 17 February 2019
Temperature: 24.0°C (75°F)
Dewpoint: 23.0°C (73°F) [RH = 94%]
Pressure (altimeter): 29.79 inches Hg (1009.0 mb)
Winds: from the SE (130 degrees) at 16 MPH (14 knots; 7.2 m/s)
Visibility: 0.62 miles (1.00 km)
Ceiling: at least 12,000 feet AGL
Clouds: few clouds at 1000 feet AGL
scattered clouds at 1200 feet AGL
few clouds at 1500 feet AGL
Weather: +TSRA  (heavy rain associated with thunderstorm(s))

METAR text: WSSL 170836Z 20021KT 1500 R03/0700D R21/P2000N +TSRA FEW010 FEW012CB SCT014TCU 25/24 Q1009
Conditions at: WSSL (SINGAPORE/SELETA, SG) observed 0836 UTC 17 February 2019
Temperature: 25.0°C (77°F)
Dewpoint: 24.0°C (75°F) [RH = 94%]
Pressure (altimeter): 29.79 inches Hg (1009.0 mb)
Winds: from the SSW (200 degrees) at 24 MPH (21 knots; 10.8 m/s)
Visibility: 0.93 miles (1.50 km)
Ceiling: at least 12,000 feet AGL
Clouds: few clouds at 1000 feet AGL
few clouds at 1200 feet AGL
scattered clouds at 1400 feet AGL
Weather: +TSRA  (heavy rain associated with thunderstorm(s))

METAR text: WSSL 170831Z 26012G22KT 210V330 2000 +TSRA FEW012 FEW014CB SCT015TCU 26/24 Q1009
Conditions at: WSSL (SINGAPORE/SELETA, SG) observed 0831 UTC 17 February 2019
Temperature: 26.0°C (79°F)
Dewpoint: 24.0°C (75°F) [RH = 89%]
Pressure (altimeter): 29.79 inches Hg (1009.0 mb)
Winds: from the W (260 degrees) at 14 MPH (12 knots; 6.2 m/s)
gusting to 25 MPH (22 knots; 11.3 m/s)
Visibility: 1.24 miles (2.00 km)
Ceiling: at least 12,000 feet AGL
Clouds: few clouds at 1200 feet AGL
few clouds at 1400 feet AGL
scattered clouds at 1500 feet AGL
Weather: +TSRA  (heavy rain associated with thunderstorm(s))

METAR text: WSSL 170821Z 10009KT 070V130 9999 VCTS FEW012 FEW016CB SCT017TCU BKN300 30/23 Q1009
Conditions at: WSSL (SINGAPORE/SELETA, SG) observed 0821 UTC 17 February 2019
Temperature: 30.0°C (86°F)
Dewpoint: 23.0°C (73°F) [RH = 66%]
Pressure (altimeter): 29.79 inches Hg (1009.0 mb)
Winds: from the E (100 degrees) at 10 MPH (9 knots; 4.6 m/s)
Visibility: 6 or more miles (10+ km)
Ceiling: 30000 feet AGL
Clouds: few clouds at 1200 feet AGL
few clouds at 1600 feet AGL
scattered clouds at 1700 feet AGL
broken clouds at 30000 feet AGL
Weather: VCTS  (thunderstorm in vicinity)

METAR text: WSSL 170800Z 09012KT 050V120 9999 VCSH FEW015 SCT018TCU FEW020CB BKN300 31/23 Q1009
Conditions at: WSSL (SINGAPORE/SELETA, SG) observed 0800 UTC 17 February 2019
Temperature: 31.0°C (88°F)
Dewpoint: 23.0°C (73°F) [RH = 63%]
Pressure (altimeter): 29.79 inches Hg (1009.0 mb)
Winds: from the E (90 degrees) at 14 MPH (12 knots; 6.2 m/s)
Visibility: 6 or more miles (10+ km)
Ceiling: 30000 feet AGL
Clouds: few clouds at 1500 feet AGL
scattered clouds at 1800 feet AGL
few clouds at 2000 feet AGL
broken clouds at 30000 feet AGL
Weather: VCSH  (showers in vicinity)

METAR text: WSSL 170700Z 01005KT 280V080 9999 SCT020TCU BKN300 33/21 Q1010
Conditions at: WSSL (SINGAPORE/SELETA, SG) observed 0700 UTC 17 February 2019
Temperature: 33.0°C (91°F)
Dewpoint: 21.0°C (70°F) [RH = 49%]
Pressure (altimeter): 29.82 inches Hg (1010.0 mb)
Winds: from the N (10 degrees) at 6 MPH (5 knots; 2.6 m/s)
Visibility: 6 or more miles (10+ km)
Ceiling: 30000 feet AGL
Clouds: scattered clouds at 2000 feet AGL
broken clouds at 30000 feet AGL
Weather: no significant weather observed at this time

METAR text: WSSL 170600Z 03007KT 320V060 9999 FEW016 SCT020TCU BKN300 32/22 Q1011
Conditions at: WSSL (SINGAPORE/SELETA, SG) observed 0600 UTC 17 February 2019
Temperature: 32.0°C (90°F)
Dewpoint: 22.0°C (72°F) [RH = 56%]
Pressure (altimeter): 29.85 inches Hg (1011.0 mb)
Winds: from the NNE (30 degrees) at 8 MPH (7 knots; 3.6 m/s)
Visibility: 6 or more miles (10+ km)
Ceiling: 30000 feet AGL
Clouds: few clouds at 1600 feet AGL
scattered clouds at 2000 feet AGL
broken clouds at 30000 feet AGL
Weather: no significant weather observed at this time

METAR text: WSSL 170500Z 02006KT 310V060 9999 FEW016 SCT018TCU BKN300 32/23 Q1013
Conditions at: WSSL (SINGAPORE/SELETA, SG) observed 0500 UTC 17 February 2019
Temperature: 32.0°C (90°F)
Dewpoint: 23.0°C (73°F) [RH = 59%]
Pressure (altimeter): 29.91 inches Hg (1013.0 mb)
Winds: from the NNE (20 degrees) at 7 MPH (6 knots; 3.1 m/s)
Visibility: 6 or more miles (10+ km)
Ceiling: 30000 feet AGL
Clouds: few clouds at 1600 feet AGL
scattered clouds at 1800 feet AGL
broken clouds at 30000 feet AGL
Weather: no significant weather observed at this time

METAR text: WSSL 170400Z 03005KT 350V060 9999 FEW015 FEW018TCU BKN300 31/23 Q1014
Conditions at: WSSL (SINGAPORE/SELETA, SG) observed 0400 UTC 17 February 2019
Temperature: 31.0°C (88°F)
Dewpoint: 23.0°C (73°F) [RH = 63%]
Pressure (altimeter): 29.94 inches Hg (1014.0 mb)
Winds: from the NNE (30 degrees) at 6 MPH (5 knots; 2.6 m/s)
Visibility: 6 or more miles (10+ km)
Ceiling: 30000 feet AGL
Clouds: few clouds at 1500 feet AGL
few clouds at 1800 feet AGL
broken clouds at 30000 feet AGL
Weather: no significant weather observed at this time

METAR text: WSSL 170300Z 03008KT 9999 FEW016 SCT140 BKN300 29/23 Q1014
Conditions at: WSSL (SINGAPORE/SELETA, SG) observed 0300 UTC 17 February 2019
Temperature: 29.0°C (84°F)
Dewpoint: 23.0°C (73°F) [RH = 70%]
Pressure (altimeter): 29.94 inches Hg (1014.0 mb)
Winds: from the NNE (30 degrees) at 9 MPH (8 knots; 4.1 m/s)
Visibility: 6 or more miles (10+ km)
Ceiling: 30000 feet AGL
Clouds: few clouds at 1600 feet AGL
scattered clouds at 14000 feet AGL
broken clouds at 30000 feet AGL
Weather: no significant weather observed at this time

METAR text: WSSL 170200Z 02009KT 9999 FEW018TCU BKN300 28/23 Q1014
Conditions at: WSSL (SINGAPORE/SELETA, SG) observed 0200 UTC 17 February 2019
Temperature: 28.0°C (82°F)
Dewpoint: 23.0°C (73°F) [RH = 74%]
Pressure (altimeter): 29.94 inches Hg (1014.0 mb)
Winds: from the NNE (20 degrees) at 10 MPH (9 knots; 4.6 m/s)
Visibility: 6 or more miles (10+ km)
Ceiling: 30000 feet AGL
Clouds: few clouds at 1800 feet AGL
broken clouds at 30000 feet AGL
Weather: no significant weather observed at this time

METAR text: WSSL 170100Z 05006KT 020V080 9999 FEW018 BKN150 BKN300 28/24 Q1013
Conditions at: WSSL (SINGAPORE/SELETA, SG) observed 0100 UTC 17 February 2019
Temperature: 28.0°C (82°F)
Dewpoint: 24.0°C (75°F) [RH = 79%]
Pressure (altimeter): 29.91 inches Hg (1013.0 mb)
Winds: from the NE (50 degrees) at 7 MPH (6 knots; 3.1 m/s)
Visibility: 6 or more miles (10+ km)
Ceiling: 15000 feet AGL
Clouds: few clouds at 1800 feet AGL
broken clouds at 15000 feet AGL
broken clouds at 30000 feet AGL
Weather: no significant weather observed at this time

METAR text: WSSL 170000Z 04005KT 9999 FEW025 BKN140 26/23 Q1012
Conditions at: WSSL (SINGAPORE/SELETA, SG) observed 0000 UTC 17 February 2019
Temperature: 26.0°C (79°F)
Dewpoint: 23.0°C (73°F) [RH = 84%]
Pressure (altimeter): 29.88 inches Hg (1012.0 mb)
Winds: from the NE (40 degrees) at 6 MPH (5 knots; 2.6 m/s)
Visibility: 6 or more miles (10+ km)
Ceiling: 14000 feet AGL
Clouds: few clouds at 2500 feet AGL
broken clouds at 14000 feet AGL
Weather: no significant weather observed at this time

METAR text: WSSL 162300Z 04006KT 9999 FEW018 SCT160 BKN300 26/23 Q1012
Conditions at: WSSL (SINGAPORE/SELETA, SG) observed 2300 UTC 16 February 2019
Temperature: 26.0°C (79°F)
Dewpoint: 23.0°C (73°F) [RH = 84%]
Pressure (altimeter): 29.88 inches Hg (1012.0 mb)
Winds: from the NE (40 degrees) at 7 MPH (6 knots; 3.1 m/s)
Visibility: 6 or more miles (10+ km)
Ceiling: 30000 feet AGL
Clouds: few clouds at 1800 feet AGL
scattered clouds at 16000 feet AGL
broken clouds at 30000 feet AGL
Weather: no significant weather observed at this time

METAR text: WSSL 162200Z 01006KT 340V050 9999 FEW018 BKN150 26/23 Q1011
Conditions at: WSSL (SINGAPORE/SELETA, SG) observed 2200 UTC 16 February 2019
Temperature: 26.0°C (79°F)
Dewpoint: 23.0°C (73°F) [RH = 84%]
Pressure (altimeter): 29.85 inches Hg (1011.0 mb)
Winds: from the N (10 degrees) at 7 MPH (6 knots; 3.1 m/s)
Visibility: 6 or more miles (10+ km)
Ceiling: 15000 feet AGL
Clouds: few clouds at 1800 feet AGL
broken clouds at 15000 feet AGL
Weather: no significant weather observed at this time

Forecast for: AMD
Text: TAF AMD WSSL 180800Z 1808/1912 02008KT 9999 SCT020
Forecast period: 0800 UTC 18 February 2019 to 1200 UTC 19 February 2019
Forecast type: FROM: standard forecast or significant change
Winds: from the NNE (20 degrees) at 9 MPH (8 knots; 4.1 m/s)
Visibility: 6 or more miles 10+ km)
Ceiling: at least 12,000 feet AGL
Clouds: scattered clouds at 2000 feet AGL
Weather: no significant weather forecast for this period
Text: TEMPO 1808/1810 3000 TSRA FEW012CB BKN015
Forecast period: 0800 to 1000 UTC 18 February 2019
Forecast type: TEMPORARY: The following changes expected for less than half the time period
Visibility: 1.86 miles (2.99 km)
Ceiling: 1500 feet AGL
Clouds: few clouds at 1200 feet AGL
broken clouds at 1500 feet AGL
Weather: TSRA  (rain associated with thunderstorm(s))
Text: TEMPO 1906/1910 3000 TSRA FEW012CB BKN015
Forecast period: 0600 to 1000 UTC 19 February 2019
Forecast type: TEMPORARY: The following changes expected for less than half the time period
Visibility: 1.86 miles (2.99 km)
Ceiling: 1500 feet AGL
Clouds: few clouds at 1200 feet AGL
broken clouds at 1500 feet AGL
Weather: TSRA  (rain associated with thunderstorm(s))